KOWD/OWD METAR and TAF weather

Enter ICAO airport designator
Station Type Date Time Source
KOWD METAR 2019/05/27 08:53 UTC NOAA

KOWD 270853Z AUTO 00000KT 10SM CLR 14/11 A2984 RMK AO2 SLP105 T01390111 53005


Station Type Date Time Source
KOWD Decoded METAR 2019/05/27 08:53 UTC NOAA

NORWOOD MEMORIAL AIRPORT, MA, United States (KOWD) 42-11N 71-10W 19M
May 27, 2019 - 04:53 AM EDT / 2019.05.27 0853 UTC
Wind: Calm:0
Visibility: 10 mile(s):0
Sky conditions: clear
Temperature: 57.0 F (13.9 C)
Dew Point: 52.0 F (11.1 C)
Relative Humidity: 83%
Pressure (altimeter): 29.84 in. Hg (1010 hPa)
Pressure tendency: 0.01 inches (0.5 hPa) higher than three hours ago
ob: KOWD 270853Z AUTO 00000KT 10SM CLR 14/11 A2984 RMK AO2 SLP105 T01390111 53005
cycle: 9

Station Type Date Time Source
KOWD TAF UTC NOAA

Error!

Example: see airport list